createdAt,value
2022-11-20T00:00:13.222Z,-1.92
2022-11-20T00:02:39.640Z,-2.00
2022-11-20T00:05:06.269Z,-2.05
2022-11-20T00:07:32.752Z,-2.08
2022-11-20T00:09:59.171Z,-2.05
2022-11-20T00:12:25.535Z,-2.04
2022-11-20T00:14:51.951Z,-2.09
2022-11-20T00:17:18.428Z,-2.13
2022-11-20T00:19:44.791Z,-2.21
2022-11-20T00:22:11.185Z,-2.24
2022-11-20T00:24:42.754Z,-2.28
2022-11-20T00:27:09.485Z,-2.24
2022-11-20T00:29:35.873Z,-2.21
2022-11-20T00:32:02.308Z,-2.17
2022-11-20T00:34:28.668Z,-2.13
2022-11-20T00:36:55.025Z,-2.13
2022-11-20T00:39:21.938Z,-2.13
2022-11-20T00:41:48.529Z,-2.11
2022-11-20T00:44:14.920Z,-2.15
2022-11-20T00:46:41.310Z,-2.10
2022-11-20T00:49:07.719Z,-2.08
2022-11-20T00:51:34.112Z,-2.05
2022-11-20T00:54:01.172Z,-2.01
2022-11-20T00:56:27.803Z,-1.99
2022-11-20T00:58:54.258Z,-2.00
2022-11-20T01:01:22.399Z,-2.04
2022-11-20T01:03:50.075Z,-2.10
2022-11-20T01:06:26.956Z,-2.14
2022-11-20T01:08:54.828Z,-2.21
2022-11-20T01:11:22.448Z,-2.24
2022-11-20T01:13:49.721Z,-2.28
2022-11-20T01:16:17.502Z,-2.26
2022-11-20T01:18:45.215Z,-2.27
2022-11-20T01:21:13.220Z,-2.33
2022-11-20T01:23:41.230Z,-2.29
2022-11-20T01:26:09.101Z,-2.22
2022-11-20T01:28:35.950Z,-2.22
2022-11-20T01:31:02.673Z,-2.19
2022-11-20T01:33:29.156Z,-2.18
2022-11-20T01:36:04.349Z,-2.18
2022-11-20T01:38:30.740Z,-2.18
2022-11-20T01:40:57.246Z,-2.12
2022-11-20T01:43:24.247Z,-2.07
2022-11-20T01:46:02.608Z,-2.07
2022-11-20T01:48:38.763Z,-2.11
2022-11-20T01:51:06.978Z,-2.16
2022-11-20T01:53:34.435Z,-2.19
2022-11-20T01:56:02.555Z,-2.17
2022-11-20T01:58:31.524Z,-2.14
2022-11-20T02:00:57.926Z,-2.11
2022-11-20T02:03:24.624Z,-2.11
2022-11-20T02:06:00.292Z,-2.13
2022-11-20T02:08:26.702Z,-2.09
2022-11-20T02:10:53.156Z,-2.15
2022-11-20T02:13:38.286Z,-2.16
2022-11-20T02:16:05.161Z,-2.10
2022-11-20T02:18:31.636Z,-2.04
2022-11-20T02:21:06.714Z,-2.02
2022-11-20T02:23:37.540Z,-2.07
2022-11-20T02:26:06.792Z,-2.14
2022-11-20T02:28:33.227Z,-2.15
2022-11-20T02:30:59.622Z,-2.15
2022-11-20T02:33:25.987Z,-2.16
2022-11-20T02:35:52.390Z,-2.10
2022-11-20T02:38:18.998Z,-2.10
2022-11-20T02:40:45.425Z,-2.17
2022-11-20T02:43:11.982Z,-2.20
2022-11-20T02:45:38.539Z,-2.14
2022-11-20T02:48:06.381Z,-2.16
2022-11-20T02:50:32.764Z,-2.20
2022-11-20T02:52:59.195Z,-2.16
2022-11-20T02:55:25.583Z,-2.13
2022-11-20T02:57:51.932Z,-2.18
2022-11-20T03:00:18.408Z,-2.17
2022-11-20T03:02:44.900Z,-2.14
2022-11-20T03:05:11.277Z,-2.18
2022-11-20T03:07:37.757Z,-2.19
2022-11-20T03:10:04.872Z,-2.16
2022-11-20T03:12:31.251Z,-2.13
2022-11-20T03:14:57.640Z,-2.14
2022-11-20T03:17:24.008Z,-2.11
2022-11-20T03:19:50.367Z,-2.11
2022-11-20T03:22:16.737Z,-2.16
2022-11-20T03:24:43.196Z,-2.25
2022-11-20T03:27:09.748Z,-2.26
2022-11-20T03:29:36.640Z,-2.34
2022-11-20T03:32:03.044Z,-2.38
2022-11-20T03:34:29.439Z,-2.41
2022-11-20T03:36:55.904Z,-2.40
2022-11-20T03:39:22.420Z,-2.33
2022-11-20T03:41:48.956Z,-2.29
2022-11-20T03:44:15.322Z,-2.39
2022-11-20T03:46:41.708Z,-2.45
2022-11-20T03:49:08.265Z,-2.42
2022-11-20T03:51:35.868Z,-2.41
2022-11-20T03:54:04.195Z,-2.41
2022-11-20T03:56:31.260Z,-2.41
2022-11-20T03:58:57.966Z,-2.45
2022-11-20T04:01:25.796Z,-2.55
2022-11-20T04:03:56.266Z,-2.62
2022-11-20T04:06:24.001Z,-2.62
2022-11-20T04:08:53.750Z,-2.55
2022-11-20T04:11:20.434Z,-2.54
2022-11-20T04:13:47.903Z,-2.53
2022-11-20T04:16:14.372Z,-2.59
2022-11-20T04:18:40.755Z,-2.66
2022-11-20T04:21:07.312Z,-2.70
2022-11-20T04:23:33.944Z,-2.68
2022-11-20T04:26:10.898Z,-2.73
2022-11-20T04:28:37.457Z,-2.78
2022-11-20T04:31:09.412Z,-2.78
2022-11-20T04:33:36.556Z,-2.73
2022-11-20T04:36:04.437Z,-2.67
2022-11-20T04:38:30.933Z,-2.68
2022-11-20T04:40:58.775Z,-2.74
2022-11-20T04:43:25.217Z,-2.72
2022-11-20T04:45:52.576Z,-2.69
2022-11-20T04:48:18.936Z,-2.71
2022-11-20T04:50:45.405Z,-2.71
2022-11-20T04:53:11.794Z,-2.70
2022-11-20T04:55:38.154Z,-2.67
2022-11-20T04:58:04.844Z,-2.64
2022-11-20T05:00:31.267Z,-2.71
2022-11-20T05:02:57.690Z,-2.79
2022-11-20T05:05:24.118Z,-2.83
2022-11-20T05:07:50.746Z,-2.86
2022-11-20T05:10:17.163Z,-2.88
2022-11-20T05:12:43.532Z,-2.86
2022-11-20T05:15:10.203Z,-2.87
2022-11-20T05:17:36.626Z,-2.89
2022-11-20T05:20:02.994Z,-2.87
2022-11-20T05:22:29.400Z,-2.87
2022-11-20T05:24:55.770Z,-2.91
2022-11-20T05:27:22.164Z,-2.95
2022-11-20T05:29:48.555Z,-2.98
2022-11-20T05:32:14.957Z,-2.96
2022-11-20T05:34:41.341Z,-3.01
2022-11-20T05:37:07.734Z,-3.05
2022-11-20T05:39:34.167Z,-3.03
2022-11-20T05:42:19.230Z,-2.99
2022-11-20T05:44:45.604Z,-2.99
2022-11-20T05:47:11.968Z,-3.06
2022-11-20T05:49:38.341Z,-3.13
2022-11-20T05:52:04.785Z,-3.15
2022-11-20T05:54:31.192Z,-3.10
2022-11-20T05:56:57.545Z,-3.07
2022-11-20T05:59:24.078Z,-3.14
2022-11-20T06:01:50.578Z,-3.19
2022-11-20T06:04:16.954Z,-3.16
2022-11-20T06:06:43.376Z,-3.13
2022-11-20T06:09:09.770Z,-3.15
2022-11-20T06:11:36.172Z,-3.14
2022-11-20T06:14:02.705Z,-3.16
2022-11-20T06:16:29.148Z,-3.14
2022-11-20T06:18:55.704Z,-3.08
2022-11-20T06:21:23.089Z,-3.04
2022-11-20T06:23:50.095Z,-3.05
2022-11-20T06:26:18.335Z,-3.08
2022-11-20T06:28:45.114Z,-3.06
2022-11-20T06:31:12.543Z,-2.99
2022-11-20T06:33:38.992Z,-2.93
2022-11-20T06:36:10.396Z,-2.90
2022-11-20T06:38:37.878Z,-2.88
2022-11-20T06:41:04.687Z,-2.83
2022-11-20T06:43:31.148Z,-2.81
2022-11-20T06:45:58.525Z,-2.84
2022-11-20T06:48:25.459Z,-2.85
2022-11-20T06:50:51.940Z,-2.88
2022-11-20T06:53:18.515Z,-2.89
2022-11-20T06:55:48.151Z,-2.83
2022-11-20T06:58:15.115Z,-2.79
2022-11-20T07:00:41.822Z,-2.79
2022-11-20T07:03:09.685Z,-2.80
2022-11-20T07:05:36.554Z,-2.85
2022-11-20T07:08:03.399Z,-2.79
2022-11-20T07:10:29.914Z,-2.73
2022-11-20T07:12:56.386Z,-2.68
2022-11-20T07:15:23.794Z,-2.71
2022-11-20T07:17:50.279Z,-2.73
2022-11-20T07:20:17.443Z,-2.75
2022-11-20T07:22:44.209Z,-2.74
2022-11-20T07:25:11.140Z,-2.73
2022-11-20T07:27:37.525Z,-2.73
2022-11-20T07:30:04.690Z,-2.69
2022-11-20T07:32:31.062Z,-2.65
2022-11-20T07:34:57.474Z,-2.57
2022-11-20T07:37:23.856Z,-2.54
2022-11-20T07:39:50.258Z,-2.50
2022-11-20T07:42:16.902Z,-2.46
2022-11-20T07:44:43.320Z,-2.51
2022-11-20T07:47:09.705Z,-2.55
2022-11-20T07:49:36.173Z,-2.62
2022-11-20T07:52:05.020Z,-2.57
2022-11-20T07:54:31.841Z,-2.46
2022-11-20T07:56:58.232Z,-2.31
2022-11-20T07:59:24.757Z,-2.22
2022-11-20T08:01:51.332Z,-2.15
2022-11-20T08:04:17.770Z,-2.07
2022-11-20T08:06:44.170Z,-2.00
2022-11-20T08:09:12.250Z,-2.02
2022-11-20T08:11:57.243Z,-2.08
2022-11-20T08:14:23.648Z,-2.04
2022-11-20T08:16:50.534Z,-2.06
2022-11-20T08:19:20.569Z,-2.08
2022-11-20T08:21:47.255Z,-2.03
2022-11-20T08:24:13.679Z,-1.84
2022-11-20T08:26:40.506Z,-1.69
2022-11-20T08:29:06.958Z,-1.67
2022-11-20T08:31:33.396Z,-1.67
2022-11-20T08:33:59.819Z,-1.77
2022-11-20T08:36:26.332Z,-1.94
2022-11-20T08:38:53.654Z,-1.97
2022-11-20T08:41:29.247Z,-2.02
2022-11-20T08:44:00.427Z,-2.00
2022-11-20T08:46:28.269Z,-2.01
2022-11-20T08:48:54.733Z,-1.99
2022-11-20T08:51:21.323Z,-1.88
2022-11-20T08:53:49.570Z,-1.81
2022-11-20T08:56:16.108Z,-1.74
2022-11-20T08:59:15.446Z,-1.69
2022-11-20T09:01:31.222Z,-1.69
2022-11-20T09:03:58.237Z,-1.59
2022-11-20T09:06:24.656Z,-1.54
2022-11-20T09:08:54.270Z,-1.45
2022-11-20T09:11:20.706Z,-1.38
2022-11-20T09:13:47.057Z,-1.30
2022-11-20T09:16:13.461Z,-1.24
2022-11-20T09:18:40.013Z,-1.22
2022-11-20T09:21:07.688Z,-1.24
2022-11-20T09:23:36.072Z,-1.22
2022-11-20T09:26:03.325Z,-1.16
2022-11-20T09:28:30.503Z,-1.08
2022-11-20T09:30:56.966Z,-0.97
2022-11-20T09:33:23.374Z,-0.87
2022-11-20T09:35:49.764Z,-0.79
2022-11-20T09:38:16.155Z,-0.70
2022-11-20T09:40:47.005Z,-0.62
2022-11-20T09:43:34.846Z,-0.59
2022-11-20T09:46:20.923Z,-0.57
2022-11-20T09:49:00.921Z,-0.55
2022-11-20T09:51:51.001Z,-0.49
2022-11-20T09:54:19.072Z,-0.44
2022-11-20T09:56:56.118Z,-0.38
2022-11-20T09:59:41.385Z,-0.28
2022-11-20T10:02:16.081Z,-0.18
2022-11-20T10:04:45.909Z,-0.09
2022-11-20T10:07:31.526Z,-0.01
2022-11-20T10:09:58.784Z,0.05
2022-11-20T10:12:34.052Z,0.11
2022-11-20T10:15:03.238Z,0.16
2022-11-20T10:17:29.644Z,0.21
2022-11-20T10:20:03.814Z,0.26
2022-11-20T10:22:48.920Z,0.31
2022-11-20T10:25:15.284Z,0.33
2022-11-20T10:27:41.664Z,0.34
2022-11-20T10:30:13.397Z,0.31
2022-11-20T10:32:41.355Z,0.29
2022-11-20T10:35:16.593Z,0.31
2022-11-20T10:37:45.532Z,0.32
2022-11-20T10:40:11.947Z,0.35
2022-11-20T10:42:52.233Z,0.32
2022-11-20T10:45:30.821Z,0.33
2022-11-20T10:48:20.883Z,0.37
2022-11-20T10:51:00.571Z,0.45
2022-11-20T10:53:34.977Z,0.58
2022-11-20T10:56:21.762Z,0.66
2022-11-20T10:58:53.494Z,0.74
2022-11-20T11:01:23.243Z,0.76
2022-11-20T11:03:50.519Z,0.78
2022-11-20T11:06:22.917Z,0.76
2022-11-20T11:08:50.526Z,0.80
2022-11-20T11:11:30.023Z,0.80
2022-11-20T11:14:09.431Z,0.78
2022-11-20T11:16:36.759Z,0.79
2022-11-20T11:19:06.895Z,0.84
2022-11-20T11:21:33.445Z,0.94
2022-11-20T11:24:27.000Z,0.97
2022-11-20T11:26:58.847Z,0.96
2022-11-20T11:29:27.733Z,0.96
2022-11-20T11:32:03.908Z,1.05
2022-11-20T11:34:30.318Z,1.06
2022-11-20T11:36:58.186Z,1.11
2022-11-20T11:39:26.009Z,1.19
2022-11-20T11:41:52.903Z,1.34
2022-11-20T11:44:43.677Z,1.46
2022-11-20T11:47:12.827Z,1.59
2022-11-20T11:49:39.209Z,1.67
2022-11-20T11:52:09.817Z,1.67
2022-11-20T11:54:39.737Z,1.69
2022-11-20T11:57:19.790Z,1.82
2022-11-20T11:59:46.247Z,1.87
2022-11-20T12:02:25.207Z,1.96
2022-11-20T12:04:56.124Z,2.05
2022-11-20T12:07:50.370Z,2.10
2022-11-20T12:10:20.575Z,2.11
2022-11-20T12:12:50.818Z,2.19
2022-11-20T12:15:23.789Z,2.17
2022-11-20T12:17:50.154Z,2.13
2022-11-20T12:20:17.122Z,2.17
2022-11-20T12:22:43.487Z,2.21
2022-11-20T12:25:18.803Z,2.25
2022-11-20T12:27:52.993Z,2.21
2022-11-20T12:30:20.424Z,2.19
2022-11-20T12:32:56.011Z,2.14
2022-11-20T12:35:37.813Z,2.09
2022-11-20T12:38:07.234Z,2.11
2022-11-20T12:40:44.184Z,2.13
2022-11-20T12:43:32.378Z,2.10
2022-11-20T12:46:12.257Z,2.07
2022-11-20T12:48:41.134Z,2.08
2022-11-20T12:51:30.307Z,2.12
2022-11-20T12:53:59.503Z,2.24
2022-11-20T12:56:35.392Z,2.31
2022-11-20T12:59:14.032Z,2.38
2022-11-20T13:01:44.875Z,2.44
2022-11-20T13:04:32.606Z,2.48
2022-11-20T13:06:59.287Z,2.52
2022-11-20T13:09:27.692Z,2.48
2022-11-20T13:12:12.837Z,2.51
2022-11-20T13:14:42.278Z,2.55
2022-11-20T13:17:27.539Z,2.59
2022-11-20T13:19:55.456Z,2.63
2022-11-20T13:22:25.869Z,2.67
2022-11-20T13:24:53.062Z,2.70
2022-11-20T13:27:21.542Z,2.73
2022-11-20T13:30:14.309Z,2.71
2022-11-20T13:32:49.050Z,2.66
2022-11-20T13:35:24.611Z,2.66
2022-11-20T13:38:00.245Z,2.66
2022-11-20T13:40:26.674Z,2.62
2022-11-20T13:43:01.837Z,2.59
2022-11-20T13:45:29.498Z,2.53
2022-11-20T13:47:56.826Z,2.50
2022-11-20T13:50:33.736Z,2.44
2022-11-20T13:53:03.186Z,2.40
2022-11-20T13:55:35.667Z,2.39
2022-11-20T13:58:20.315Z,2.38
2022-11-20T14:00:54.234Z,2.37
2022-11-20T14:03:43.979Z,2.31
2022-11-20T14:06:14.796Z,2.26
2022-11-20T14:08:44.468Z,2.20
2022-11-20T14:11:15.710Z,2.18
2022-11-20T14:13:52.957Z,2.15
2022-11-20T14:16:22.520Z,2.11
2022-11-20T14:18:48.974Z,2.09
2022-11-20T14:21:29.217Z,2.06
2022-11-20T14:24:11.416Z,1.98
2022-11-20T14:26:39.093Z,1.96
2022-11-20T14:29:05.501Z,1.90
2022-11-20T14:31:33.054Z,1.84
2022-11-20T14:33:59.488Z,1.78
2022-11-20T14:36:26.590Z,1.74
2022-11-20T14:38:53.392Z,1.72
2022-11-20T14:41:21.392Z,1.68
2022-11-20T14:43:50.790Z,1.61
2022-11-20T14:46:17.482Z,1.52
2022-11-20T14:48:56.090Z,1.46
2022-11-20T14:51:28.553Z,1.36
2022-11-20T14:53:55.043Z,1.28
2022-11-20T14:56:25.175Z,1.26
2022-11-20T14:58:58.659Z,1.23
2022-11-20T15:01:32.053Z,1.23
2022-11-20T15:04:07.763Z,1.20
2022-11-20T15:06:34.313Z,1.14
2022-11-20T15:09:00.789Z,1.08
2022-11-20T15:11:29.368Z,1.02
2022-11-20T15:13:56.380Z,0.99
2022-11-20T15:16:24.600Z,0.95
2022-11-20T15:18:51.206Z,0.87
2022-11-20T15:21:18.913Z,0.80
2022-11-20T15:23:45.623Z,0.79
2022-11-20T15:26:18.420Z,0.76
2022-11-20T15:28:48.731Z,0.71
2022-11-20T15:31:16.909Z,0.64
2022-11-20T15:33:43.677Z,0.57
2022-11-20T15:36:10.285Z,0.55
2022-11-20T15:38:36.864Z,0.53
2022-11-20T15:41:03.253Z,0.48
2022-11-20T15:43:29.692Z,0.43
2022-11-20T15:45:57.747Z,0.39
2022-11-20T15:48:25.805Z,0.34
2022-11-20T15:50:52.154Z,0.29
2022-11-20T15:53:18.666Z,0.29
2022-11-20T15:55:45.077Z,0.27
2022-11-20T15:58:11.505Z,0.23
2022-11-20T16:00:37.901Z,0.22
2022-11-20T16:03:04.348Z,0.15
2022-11-20T16:05:31.023Z,0.09
2022-11-20T16:07:57.873Z,0.07
2022-11-20T16:10:24.658Z,0.05
2022-11-20T16:13:09.911Z,0.01
2022-11-20T16:15:48.922Z,-0.04
2022-11-20T16:18:16.942Z,-0.10
2022-11-20T16:20:43.910Z,-0.13
2022-11-20T16:23:10.305Z,-0.17
2022-11-20T16:25:36.742Z,-0.20
2022-11-20T16:28:03.227Z,-0.21
2022-11-20T16:30:29.703Z,-0.27
2022-11-20T16:32:56.139Z,-0.30
2022-11-20T16:35:22.513Z,-0.30
2022-11-20T16:37:48.914Z,-0.37
2022-11-20T16:40:15.522Z,-0.41
2022-11-20T16:42:41.910Z,-0.42
2022-11-20T16:45:08.503Z,-0.43
2022-11-20T16:47:35.610Z,-0.45
2022-11-20T16:50:02.938Z,-0.47
2022-11-20T16:52:30.350Z,-0.49
2022-11-20T16:54:56.766Z,-0.50
2022-11-20T16:57:23.478Z,-0.48
2022-11-20T16:59:49.906Z,-0.50
2022-11-20T17:02:16.533Z,-0.52
2022-11-20T17:04:42.974Z,-0.55
2022-11-20T17:07:09.561Z,-0.66
2022-11-20T17:09:35.963Z,-0.66
2022-11-20T17:12:02.383Z,-0.64
2022-11-20T17:14:28.769Z,-0.64
2022-11-20T17:16:55.185Z,-0.74
2022-11-20T17:19:21.625Z,-0.78
2022-11-20T17:21:48.052Z,-0.76
2022-11-20T17:24:16.136Z,-0.78
2022-11-20T17:26:43.359Z,-0.80
2022-11-20T17:29:19.326Z,-0.84
2022-11-20T17:31:46.270Z,-0.82
2022-11-20T17:34:13.425Z,-0.88
2022-11-20T17:36:45.016Z,-0.98
2022-11-20T17:39:12.581Z,-0.96
2022-11-20T17:41:39.027Z,-0.94
2022-11-20T17:44:05.495Z,-0.97
2022-11-20T17:46:33.476Z,-0.98
2022-11-20T17:49:00.240Z,-1.05
2022-11-20T17:51:27.825Z,-1.09
2022-11-20T17:53:59.027Z,-1.11
2022-11-20T17:56:43.825Z,-1.13
2022-11-20T17:59:11.896Z,-1.10
2022-11-20T18:01:39.422Z,-1.07
2022-11-20T18:04:06.440Z,-1.10
2022-11-20T18:06:33.127Z,-1.18
2022-11-20T18:09:00.051Z,-1.18
2022-11-20T18:11:27.803Z,-1.12
2022-11-20T18:14:13.913Z,-1.12
2022-11-20T18:16:44.527Z,-1.22
2022-11-20T18:19:11.828Z,-1.18
2022-11-20T18:21:38.221Z,-1.21
2022-11-20T18:24:04.840Z,-1.27
2022-11-20T18:26:31.298Z,-1.23
2022-11-20T18:28:57.921Z,-1.16
2022-11-20T18:31:24.426Z,-1.24
2022-11-20T18:33:52.533Z,-1.35
2022-11-20T18:36:20.047Z,-1.38
2022-11-20T18:38:47.408Z,-1.35
2022-11-20T18:41:33.538Z,-1.34
2022-11-20T18:44:19.196Z,-1.32
2022-11-20T18:46:45.602Z,-1.35
2022-11-20T18:49:12.323Z,-1.38
2022-11-20T18:51:39.416Z,-1.46
2022-11-20T18:54:06.132Z,-1.45
2022-11-20T18:56:32.841Z,-1.44
2022-11-20T18:59:01.535Z,-1.47
2022-11-20T19:01:28.225Z,-1.49
2022-11-20T19:03:54.718Z,-1.54
2022-11-20T19:06:21.195Z,-1.52
2022-11-20T19:08:47.754Z,-1.48
2022-11-20T19:11:14.380Z,-1.50
2022-11-20T19:13:40.805Z,-1.53
2022-11-20T19:16:14.377Z,-1.48
2022-11-20T19:18:41.102Z,-1.48
2022-11-20T19:21:11.512Z,-1.48
2022-11-20T19:23:38.348Z,-1.46
2022-11-20T19:26:05.469Z,-1.44
2022-11-20T19:28:33.081Z,-1.50
2022-11-20T19:31:06.685Z,-1.53
2022-11-20T19:33:33.416Z,-1.51
2022-11-20T19:36:16.518Z,-1.58
2022-11-20T19:38:47.777Z,-1.67
2022-11-20T19:41:14.989Z,-1.71
2022-11-20T19:43:41.392Z,-1.79
2022-11-20T19:46:07.785Z,-1.80
2022-11-20T19:48:34.981Z,-1.84
2022-11-20T19:51:21.640Z,-1.84
2022-11-20T19:53:48.150Z,-1.90
2022-11-20T19:56:15.028Z,-1.95
2022-11-20T19:58:41.940Z,-1.99
2022-11-20T20:01:09.953Z,-2.04
2022-11-20T20:03:37.403Z,-2.04
2022-11-20T20:06:04.627Z,-2.03
2022-11-20T20:08:31.329Z,-1.97
2022-11-20T20:10:59.631Z,-2.01
2022-11-20T20:13:26.654Z,-2.06
2022-11-20T20:15:53.262Z,-2.02
2022-11-20T20:18:19.652Z,-2.02
2022-11-20T20:20:46.027Z,-1.98
2022-11-20T20:23:12.431Z,-1.95
2022-11-20T20:25:38.854Z,-2.01
2022-11-20T20:28:05.648Z,-2.07
2022-11-20T20:30:32.097Z,-2.14
2022-11-20T20:32:58.484Z,-2.20
2022-11-20T20:35:25.121Z,-2.24
2022-11-20T20:37:51.676Z,-2.29
2022-11-20T20:40:19.298Z,-2.35
2022-11-20T20:42:45.731Z,-2.37
2022-11-20T20:45:12.176Z,-2.28
2022-11-20T20:47:39.391Z,-2.27
2022-11-20T20:50:07.099Z,-2.34
2022-11-20T20:52:33.509Z,-2.38
2022-11-20T20:55:00.165Z,-2.42
2022-11-20T20:57:28.513Z,-2.46
2022-11-20T20:59:55.600Z,-2.50
2022-11-20T21:02:22.963Z,-2.52
2022-11-20T21:04:50.045Z,-2.45
2022-11-20T21:07:17.104Z,-2.41
2022-11-20T21:09:43.574Z,-2.42
2022-11-20T21:12:10.394Z,-2.46
2022-11-20T21:14:36.800Z,-2.41
2022-11-20T21:17:03.212Z,-2.33
2022-11-20T21:19:29.660Z,-2.36
2022-11-20T21:21:58.955Z,-2.34
2022-11-20T21:24:31.510Z,-2.30
2022-11-20T21:26:58.288Z,-2.22
2022-11-20T21:29:26.160Z,-2.23
2022-11-20T21:31:53.358Z,-2.34
2022-11-20T21:34:20.006Z,-2.45
2022-11-20T21:36:46.760Z,-2.53
2022-11-20T21:39:14.278Z,-2.55
2022-11-20T21:41:41.215Z,-2.49
2022-11-20T21:44:30.043Z,-2.50
2022-11-20T21:46:56.000Z,-2.54
2022-11-20T21:49:22.694Z,-2.61
2022-11-20T21:51:49.354Z,-2.58
2022-11-20T21:54:17.499Z,-2.59
2022-11-20T21:56:43.859Z,-2.61
2022-11-20T21:59:11.818Z,-2.61
2022-11-20T22:01:38.262Z,-2.71
2022-11-20T22:04:04.750Z,-2.74
2022-11-20T22:06:34.896Z,-2.71
2022-11-20T22:09:02.187Z,-2.67
2022-11-20T22:11:28.866Z,-2.63
2022-11-20T22:14:14.069Z,-2.67
2022-11-20T22:16:40.605Z,-2.76
2022-11-20T22:19:07.045Z,-2.81
2022-11-20T22:21:33.805Z,-2.80
2022-11-20T22:24:00.523Z,-2.80
2022-11-20T22:26:28.409Z,-2.84
2022-11-20T22:28:55.962Z,-2.83
2022-11-20T22:31:23.181Z,-2.88
2022-11-20T22:33:49.802Z,-2.90
2022-11-20T22:36:17.726Z,-2.89
2022-11-20T22:38:44.630Z,-2.86
2022-11-20T22:41:15.321Z,-2.86
2022-11-20T22:43:42.273Z,-2.92
2022-11-20T22:46:10.084Z,-3.00
2022-11-20T22:48:37.453Z,-3.01
2022-11-20T22:51:05.054Z,-3.06
2022-11-20T22:53:31.788Z,-3.05
2022-11-20T22:55:58.276Z,-3.03
2022-11-20T22:58:24.667Z,-3.06
2022-11-20T23:00:51.208Z,-3.09
2022-11-20T23:03:17.683Z,-3.14
2022-11-20T23:05:44.132Z,-3.19
2022-11-20T23:08:10.528Z,-3.18
2022-11-20T23:10:36.958Z,-3.09
2022-11-20T23:13:03.403Z,-3.10
2022-11-20T23:15:29.844Z,-3.11
2022-11-20T23:17:56.260Z,-3.09
2022-11-20T23:20:22.626Z,-3.17
2022-11-20T23:22:49.426Z,-3.24
2022-11-20T23:25:15.801Z,-3.29
2022-11-20T23:27:42.180Z,-3.35
2022-11-20T23:30:09.101Z,-3.40
2022-11-20T23:32:35.499Z,-3.41
2022-11-20T23:35:01.852Z,-3.42
2022-11-20T23:37:28.242Z,-3.47
2022-11-20T23:39:54.606Z,-3.52
2022-11-20T23:42:20.973Z,-3.54
2022-11-20T23:44:47.345Z,-3.48
2022-11-20T23:47:13.812Z,-3.41
2022-11-20T23:49:40.173Z,-3.33
2022-11-20T23:52:06.576Z,-3.31
2022-11-20T23:54:32.984Z,-3.24
2022-11-20T23:56:59.361Z,-3.28
2022-11-20T23:59:25.998Z,-3.38
